Time;durP1;ratioP1;P1;durP2;ratioP2;P2;SDS_P1;SDS_P2;PMS_P1;PMS_P2;Temp;Humidity;BMP_temperature;BMP_pressure;BME280_temperature;BME280_humidity;BME280_pressure;Samples;Min_cycle;Max_cycle;Signal;HPM_P1;HPM_P2
2024/02/20 00:00:00;;;;;;;14.77;10.50;;;;;;;29.19;77.71;101143.66;5047279;28;66332;-35
2024/02/20 00:02:43;;;;;;;16.38;10.63;;;;;;;29.23;78.29;101144.09;5038614;28;70405;-34
2024/02/20 00:05:14;;;;;;;17.05;10.05;;;;;;;29.21;76.60;101144.28;5041789;28;65364;-35
2024/02/20 00:07:45;;;;;;;13.40;10.07;;;;;;;29.25;77.39;101136.59;5048853;28;69317;-35
2024/02/20 00:10:16;;;;;;;19.33;10.23;;;;;;;29.32;80.60;101149.09;5044969;28;66428;-34
2024/02/20 00:12:47;;;;;;;19.30;9.83;;;;;;;29.33;78.29;101150.75;5045866;28;69961;-34
2024/02/20 00:15:18;;;;;;;15.63;10.05;;;;;;;29.35;78.57;101151.41;5046699;28;65049;-34
2024/02/20 00:17:48;;;;;;;19.05;9.93;;;;;;;29.39;78.87;101157.22;5041629;28;70573;-34
2024/02/20 00:20:19;;;;;;;13.18;10.23;;;;;;;29.38;79.89;101153.69;5048006;28;66697;-35
2024/02/20 00:22:50;;;;;;;18.95;11.38;;;;;;;29.42;80.18;101154.16;5038326;28;69693;-35
2024/02/20 00:25:20;;;;;;;20.58;10.63;;;;;;;29.51;79.72;101176.41;5040407;28;66255;-35
2024/02/20 00:27:51;;;;;;;20.70;10.53;;;;;;;29.52;80.31;101178.06;5057697;28;69941;-35
2024/02/20 00:30:22;;;;;;;17.88;11.52;;;;;;;29.49;81.26;101173.06;5049102;28;66720;-33
2024/02/20 00:32:53;;;;;;;15.35;10.50;;;;;;;29.57;80.97;101186.41;5045569;28;70123;-34
2024/02/20 00:35:23;;;;;;;19.42;10.20;;;;;;;29.61;80.69;101187.63;5053906;28;65893;-35
2024/02/20 00:37:54;;;;;;;21.88;10.40;;;;;;;29.65;80.16;101191.66;5056195;28;71851;-34
2024/02/20 00:40:26;;;;;;;11.68;9.65;;;;;;;29.68;79.91;101196.63;5050295;28;65895;-35
2024/02/20 00:42:57;;;;;;;15.25;9.57;;;;;;;29.69;79.84;101198.28;5053768;28;69241;-34
2024/02/20 00:45:28;;;;;;;14.93;9.15;;;;;;;29.70;79.42;101201.81;5039623;28;65721;-35
2024/02/20 00:47:58;;;;;;;13.05;9.88;;;;;;;29.73;79.16;101210.38;5054196;28;70194;-36
2024/02/20 00:50:29;;;;;;;13.80;8.70;;;;;;;29.75;79.24;101207.47;5045737;28;66006;-34
2024/02/20 00:52:59;;;;;;;17.35;8.85;;;;;;;29.76;79.33;101203.72;5038797;28;69942;-34
2024/02/20 00:55:30;;;;;;;16.38;8.30;;;;;;;29.79;79.32;101206.03;5044166;28;66548;-35
2024/02/20 00:58:01;;;;;;;9.13;8.30;;;;;;;29.81;78.81;101212.03;5053184;28;69030;-35
2024/02/20 01:00:31;;;;;;;10.38;8.18;;;;;;;29.74;78.85;101195.00;5044858;28;66611;-35
2024/02/20 01:03:02;;;;;;;9.00;8.20;;;;;;;29.81;78.33;101204.78;5048782;28;70464;-34
2024/02/20 01:05:32;;;;;;;13.48;8.52;;;;;;;29.85;78.70;101218.72;5048449;28;66365;-35
2024/02/20 01:08:03;;;;;;;8.23;7.38;;;;;;;29.89;78.11;101219.13;5059918;28;69723;-35
2024/02/20 01:10:34;;;;;;;9.82;8.82;;;;;;;29.91;78.12;101230.59;5056292;28;67537;-35
2024/02/20 01:13:04;;;;;;;10.25;7.50;;;;;;;29.93;78.19;101236.63;5055373;28;70391;-35
2024/02/20 01:15:35;;;;;;;11.55;7.95;;;;;;;29.91;77.51;101233.28;5044670;28;66578;-35
2024/02/20 01:18:05;;;;;;;8.27;7.47;;;;;;;29.97;77.94;101232.47;5051852;28;70376;-34
2024/02/20 01:20:36;;;;;;;11.20;7.50;;;;;;;29.99;77.32;101241.22;5050037;28;65377;-35
2024/02/20 01:23:07;;;;;;;7.88;7.07;;;;;;;30.00;77.69;101240.16;5059016;28;69426;-34
2024/02/20 01:25:38;;;;;;;8.10;7.30;;;;;;;30.01;76.96;101239.16;5048438;28;66166;-35
2024/02/20 01:28:09;;;;;;;8.80;6.90;;;;;;;29.99;76.91;101243.91;5047896;28;69523;-35
2024/02/20 01:30:42;;;;;;;7.20;6.50;;;;;;;30.03;77.20;101258.69;5057598;28;66128;-39
2024/02/20 01:33:13;;;;;;;9.52;6.93;;;;;;;30.06;77.42;101263.69;5059114;28;69919;-35
2024/02/20 01:35:43;;;;;;;7.07;6.53;;;;;;;30.09;76.93;101268.72;5057387;28;66571;-35
2024/02/20 01:38:14;;;;;;;12.13;6.80;;;;;;;30.11;76.98;101266.59;5049875;28;70552;-34
2024/02/20 01:40:45;;;;;;;7.13;6.38;;;;;;;30.13;76.46;101269.94;5054777;28;66038;-35
2024/02/20 01:43:15;;;;;;;7.82;6.20;;;;;;;30.13;76.69;101269.13;5048603;28;70687;-35
2024/02/20 01:45:46;;;;;;;6.70;6.10;;;;;;;30.18;75.93;101278.28;5050200;28;66455;-35
2024/02/20 01:48:17;;;;;;;8.53;6.50;;;;;;;30.03;76.13;101264.09;5048707;28;69977;-35
2024/02/20 01:50:47;;;;;;;9.07;6.38;;;;;;;30.20;75.92;101276.22;5046761;28;66353;-35
2024/02/20 01:53:19;;;;;;;7.50;6.10;;;;;;;30.24;75.70;101288.31;5065140;28;69999;-34
2024/02/20 01:55:50;;;;;;;8.88;6.20;;;;;;;30.26;76.05;101272.72;5047923;28;66598;-34
2024/02/20 01:58:20;;;;;;;7.40;5.90;;;;;;;30.28;75.79;101281.47;5045629;28;70774;-36
2024/02/20 02:00:51;;;;;;;7.18;6.45;;;;;;;30.31;75.98;101271.25;5049851;28;65821;-35
2024/02/20 02:03:22;;;;;;;6.33;5.83;;;;;;;30.32;75.71;101272.94;5049004;28;69743;-34
2024/02/20 02:05:52;;;;;;;6.93;6.30;;;;;;;30.36;75.59;101274.16;5046501;28;65684;-35
2024/02/20 02:08:23;;;;;;;6.72;5.97;;;;;;;30.37;75.93;101281.22;5047068;28;69914;-34
2024/02/20 02:10:53;;;;;;;7.55;5.95;;;;;;;30.39;75.44;101277.28;5051000;28;65688;-35
2024/02/20 02:13:24;;;;;;;6.10;5.55;;;;;;;30.42;75.57;101279.59;5047782;28;70882;-34
2024/02/20 02:15:55;;;;;;;6.30;5.80;;;;;;;30.44;75.03;101282.06;5028763;28;67019;-34
2024/02/20 02:18:26;;;;;;;6.53;5.93;;;;;;;30.45;75.04;101275.63;5047779;27;69584;-34
2024/02/20 02:20:56;;;;;;;6.60;6.10;;;;;;;30.48;75.46;101284.19;5047441;28;66718;-34
2024/02/20 02:23:27;;;;;;;6.15;5.65;;;;;;;30.48;75.31;101277.94;5046352;28;70586;-35
2024/02/20 02:25:57;;;;;;;6.38;5.78;;;;;;;30.55;74.89;101295.00;5045057;28;65841;-35
2024/02/20 02:28:27;;;;;;;5.95;5.45;;;;;;;30.58;74.74;101293.75;5047800;28;70249;-35
2024/02/20 02:30:59;;;;;;;6.97;6.05;;;;;;;30.59;74.75;101296.25;5048990;28;65840;-35
2024/02/20 02:33:30;;;;;;;5.93;5.43;;;;;;;30.62;75.12;101285.00;5046598;28;69997;-35
2024/02/20 02:36:01;;;;;;;6.57;5.18;;;;;;;30.60;74.57;101275.41;5050562;28;67752;-35
2024/02/20 02:38:32;;;;;;;6.28;5.82;;;;;;;30.65;74.45;101279.16;5053641;28;70420;-35
2024/02/20 02:41:02;;;;;;;6.20;5.60;;;;;;;30.70;74.39;101282.09;5045158;28;66447;-35
2024/02/20 02:43:33;;;;;;;6.23;5.63;;;;;;;30.69;74.15;101276.88;5047824;28;69854;-35
2024/02/20 02:46:04;;;;;;;5.43;5.03;;;;;;;30.75;74.51;101283.31;5050274;28;66499;-36
2024/02/20 02:48:34;;;;;;;5.75;5.07;;;;;;;30.78;74.03;101280.19;5047375;28;69939;-35
2024/02/20 02:51:08;;;;;;;5.82;5.32;;;;;;;30.80;74.41;101280.84;5051818;28;67496;-35
2024/02/20 02:53:39;;;;;;;9.48;5.40;;;;;;;30.82;74.11;101282.31;5045003;28;70015;-37
2024/02/20 02:56:13;;;;;;;6.13;5.63;;;;;;;30.85;73.97;101272.94;5050714;28;66698;-37
2024/02/20 02:58:44;;;;;;;5.32;4.85;;;;;;;30.89;74.19;101285.00;5053378;28;70487;-34
2024/02/20 03:01:14;;;;;;;5.63;5.07;;;;;;;30.90;73.93;101281.25;5051838;28;66908;-34
2024/02/20 03:03:45;;;;;;;9.93;4.65;;;;;;;30.94;73.76;101279.78;5053877;28;70442;-35
2024/02/20 03:06:16;;;;;;;5.53;5.18;;;;;;;30.97;73.44;101281.25;5051840;28;65157;-37
2024/02/20 03:08:48;;;;;;;6.90;5.53;;;;;;;30.98;73.91;101283.75;5047669;28;70164;-36
2024/02/20 03:11:19;;;;;;;5.28;4.88;;;;;;;31.01;73.45;101272.50;5058284;28;65127;-35
2024/02/20 03:13:49;;;;;;;5.90;5.18;;;;;;;31.03;73.31;101259.53;5043544;28;70106;-37
2024/02/20 03:16:20;;;;;;;5.85;5.35;;;;;;;31.06;73.53;101259.09;5047215;28;65655;-35
2024/02/20 03:18:51;;;;;;;5.90;5.30;;;;;;;30.94;73.32;101239.16;5051784;28;70503;-34
2024/02/20 03:21:21;;;;;;;5.57;5.05;;;;;;;31.12;73.18;101262.84;5046628;28;66510;-34
2024/02/20 03:23:52;;;;;;;6.18;5.57;;;;;;;31.09;73.32;101258.72;5046707;28;69921;-37
2024/02/20 03:26:22;;;;;;;6.05;5.45;;;;;;;31.18;73.21;101262.03;5056084;28;65787;-52
2024/02/20 03:28:54;;;;;;;5.07;4.60;;;;;;;31.21;72.86;101261.59;5052093;28;70009;-36
2024/02/20 03:31:25;;;;;;;;;;;;;;;31.13;73.93;101262.66;5043152;28;66796;-36
2024/02/20 03:33:56;;;;;;;5.85;5.35;;;;;;;31.28;72.93;101253.41;5050952;27;69775;-37
2024/02/20 03:36:27;;;;;;;4.43;4.13;;;;;;;31.26;72.81;101241.94;5042451;28;66306;-34
2024/02/20 03:38:57;;;;;;;5.05;4.65;;;;;;;31.33;72.71;101242.78;5045729;28;69660;-35
2024/02/20 03:41:28;;;;;;;5.32;4.82;;;;;;;31.37;72.63;101244.03;5047714;28;65944;-36
2024/02/20 03:43:59;;;;;;;5.03;4.55;;;;;;;31.38;72.91;101241.09;5052775;28;69458;-35
2024/02/20 03:46:29;;;;;;;5.55;5.15;;;;;;;31.42;72.20;101229.84;5052045;28;66452;-35
2024/02/20 03:49:00;;;;;;;4.93;4.53;;;;;;;31.44;72.41;101244.84;5053510;28;69617;-35
2024/02/20 03:51:31;;;;;;;4.93;4.63;;;;;;;31.47;72.49;101238.97;5048436;28;66102;-35
2024/02/20 03:54:02;;;;;;;5.30;4.85;;;;;;;31.49;72.46;101226.06;5058917;28;70656;-35
2024/02/20 03:56:32;;;;;;;5.28;4.88;;;;;;;31.42;72.12;101219.81;5057945;28;65638;-35
2024/02/20 03:59:03;;;;;;;5.05;4.65;;;;;;;31.54;71.98;101222.69;5051819;28;70279;-35
2024/02/20 04:01:34;;;;;;;5.38;4.90;;;;;;;31.59;71.88;101210.16;5054652;28;66694;-35
2024/02/20 04:04:05;;;;;;;5.93;4.47;;;;;;;31.61;71.85;101213.44;5049168;28;71389;-36
2024/02/20 04:06:36;;;;;;;5.03;4.63;;;;;;;31.51;72.05;101193.28;5051788;28;66422;-36
2024/02/20 04:09:07;;;;;;;4.87;4.47;;;;;;;31.68;71.52;101218.84;5057936;28;71406;-35
2024/02/20 04:11:38;;;;;;;4.88;4.47;;;;;;;31.70;71.35;101205.06;5040205;28;66925;-35
2024/02/20 04:14:08;;;;;;;4.38;4.07;;;;;;;31.73;71.62;101201.91;5037740;28;69751;-35
2024/02/20 04:16:39;;;;;;;5.20;4.47;;;;;;;31.79;71.60;101192.94;5058521;28;66173;-35
2024/02/20 04:19:10;;;;;;;8.57;4.40;;;;;;;31.81;70.96;101190.81;5064757;28;69504;-35
2024/02/20 04:21:40;;;;;;;4.45;4.05;;;;;;;31.79;71.21;101173.94;5039181;28;66738;-35
2024/02/20 04:24:11;;;;;;;4.82;4.43;;;;;;;31.88;71.63;101191.59;5048861;28;69963;-36
2024/02/20 04:26:42;;;;;;;5.15;4.75;;;;;;;31.86;70.93;101172.00;5053737;28;65669;-35
2024/02/20 04:29:12;;;;;;;4.90;4.47;;;;;;;31.93;71.17;101180.94;5048518;28;70398;-37
2024/02/20 04:31:43;;;;;;;4.57;4.18;;;;;;;31.95;71.09;101181.53;5053077;28;66707;-35
2024/02/20 04:34:14;;;;;;;5.50;4.03;;;;;;;31.98;70.97;101174.84;5058178;28;69869;-35
2024/02/20 04:36:45;;;;;;;7.90;4.68;;;;;;;32.04;70.89;101182.94;5055827;28;66226;-35
2024/02/20 04:39:15;;;;;;;4.90;4.50;;;;;;;32.07;70.95;101178.97;5046885;28;70531;-35
2024/02/20 04:41:45;;;;;;;5.07;4.35;;;;;;;32.11;70.98;101185.59;5042243;28;66431;-35
2024/02/20 04:44:16;;;;;;;7.13;4.20;;;;;;;32.13;70.70;101174.53;5053873;28;69859;-34
2024/02/20 04:46:47;;;;;;;6.32;4.75;;;;;;;32.16;70.64;101171.38;5050267;28;65743;-36
2024/02/20 04:49:18;;;;;;;4.65;4.03;;;;;;;32.19;70.18;101173.63;5047856;28;70552;-36
2024/02/20 04:51:49;;;;;;;4.53;4.23;;;;;;;32.21;70.28;101163.41;5048815;28;67475;-36
2024/02/20 04:54:19;;;;;;;4.85;3.83;;;;;;;32.25;70.36;101159.19;5047771;28;69669;-35
2024/02/20 04:56:51;;;;;;;4.70;4.03;;;;;;;32.26;70.18;101155.41;5048998;28;65667;-35
2024/02/20 04:59:23;;;;;;;4.72;4.32;;;;;;;32.32;70.32;101149.09;5040738;28;70498;-35
2024/02/20 05:01:53;;;;;;;5.70;4.47;;;;;;;32.33;70.14;101145.31;5046015;28;66400;-36
2024/02/20 05:04:26;;;;;;;6.75;4.45;;;;;;;32.36;69.69;101141.31;5045869;28;71655;-35
2024/02/20 05:06:57;;;;;;;4.32;3.92;;;;;;;32.40;69.67;101139.81;5048843;28;66840;-35
2024/02/20 05:09:27;;;;;;;4.18;3.88;;;;;;;32.43;69.92;101133.91;5050742;28;70001;-35
2024/02/20 05:11:59;;;;;;;4.07;3.77;;;;;;;32.27;69.87;101102.78;5048489;28;66732;-36
2024/02/20 05:14:29;;;;;;;;;;;;;;;32.43;69.89;101129.34;5053893;28;70357;-35
2024/02/20 05:17:02;;;;;;;4.43;4.03;;;;;;;32.52;69.80;101120.94;5047110;28;66496;-34
2024/02/20 05:19:33;;;;;;;4.18;3.78;;;;;;;32.57;69.62;101118.34;5047047;28;70568;-35
2024/02/20 05:22:04;;;;;;;5.50;3.78;;;;;;;32.58;69.58;101122.75;5048715;28;66541;-35
2024/02/20 05:24:35;;;;;;;4.38;4.07;;;;;;;32.61;69.53;101114.97;5045057;28;70482;-35
2024/02/20 05:27:06;;;;;;;5.53;3.40;;;;;;;32.48;69.48;101083.38;5041454;28;65644;-35
2024/02/20 05:29:40;;;;;;;3.50;3.20;;;;;;;32.35;69.33;101050.09;5051371;28;70953;-35
2024/02/20 05:32:14;;;;;;;3.80;3.42;;;;;;;32.70;69.42;101107.34;5046689;28;66777;-35
2024/02/20 05:34:45;;;;;;;4.05;3.75;;;;;;;32.72;69.41;101102.50;5041570;28;70676;-35
2024/02/20 05:37:16;;;;;;;3.67;3.37;;;;;;;32.72;69.17;101099.78;5047930;28;65546;-35
2024/02/20 05:39:46;;;;;;;3.88;3.58;;;;;;;32.77;69.13;101091.81;5045303;28;69899;-33
2024/02/20 05:42:18;;;;;;;3.90;3.60;;;;;;;32.78;69.12;101082.56;5045820;28;66641;-37
2024/02/20 05:44:51;;;;;;;3.65;3.35;;;;;;;32.83;69.06;101079.19;5058755;28;70605;-37
2024/02/20 05:47:21;;;;;;;3.63;3.38;;;;;;;32.83;69.04;101069.16;5052815;28;67028;-36
2024/02/20 05:49:53;;;;;;;3.70;3.40;;;;;;;32.87;68.87;101064.06;5053195;28;69915;-35
2024/02/20 05:52:26;;;;;;;3.20;3.00;;;;;;;32.84;68.82;101057.22;5050315;28;66273;-35
2024/02/20 05:54:57;;;;;;;4.10;3.53;;;;;;;32.92;68.93;101062.31;5049727;28;68960;-36
2024/02/20 05:57:28;;;;;;;3.50;3.20;;;;;;;32.94;68.74;101054.78;5052795;28;66673;-35
2024/02/20 05:59:59;;;;;;;3.63;3.33;;;;;;;32.97;68.91;101044.50;5055832;28;69590;-35
2024/02/20 06:02:32;;;;;;;3.45;3.25;;;;;;;32.99;68.92;101026.06;5058043;28;65520;-37
2024/02/20 06:05:03;;;;;;;3.47;3.17;;;;;;;33.02;68.81;101017.50;5053593;28;70351;-36
2024/02/20 06:07:34;;;;;;;3.73;3.40;;;;;;;33.06;68.55;101021.41;5048921;28;66042;-35
2024/02/20 06:10:06;;;;;;;4.88;3.17;;;;;;;33.08;68.49;101008.44;5063370;28;70157;-35
2024/02/20 06:12:37;;;;;;;3.75;3.35;;;;;;;33.12;68.49;101013.16;5047950;28;66057;-36
2024/02/20 06:15:08;;;;;;;3.92;3.35;;;;;;;33.13;68.32;100997.69;5057864;28;69936;-35
2024/02/20 06:17:38;;;;;;;3.00;2.80;;;;;;;33.18;68.33;101005.13;5060410;28;67497;-35
2024/02/20 06:20:10;;;;;;;3.47;3.17;;;;;;;33.21;68.35;100986.47;5057789;28;71352;-35
2024/02/20 06:22:41;;;;;;;3.55;3.25;;;;;;;33.24;68.35;100982.44;5057895;28;65307;-35
2024/02/20 06:25:11;;;;;;;3.22;2.85;;;;;;;33.26;68.20;100981.16;5058591;28;69836;-35
2024/02/20 06:27:45;;;;;;;3.22;3.03;;;;;;;33.23;68.12;100962.59;5052656;28;66262;-35
2024/02/20 06:30:16;;;;;;;3.40;3.13;;;;;;;33.30;68.14;100966.03;5048740;28;70827;-35
2024/02/20 06:32:47;;;;;;;3.90;3.00;;;;;;;33.34;68.12;100966.38;5054291;28;66958;-35
2024/02/20 06:35:18;;;;;;;3.03;2.83;;;;;;;33.36;67.97;100956.09;5046633;28;70023;-35
2024/02/20 06:37:49;;;;;;;4.82;3.03;;;;;;;33.36;68.04;100948.78;5042904;28;66422;-35
2024/02/20 06:40:21;;;;;;;3.90;3.40;;;;;;;33.42;68.21;100947.00;5043480;28;70549;-35
2024/02/20 06:42:53;;;;;;;2.97;2.78;;;;;;;33.46;68.08;100952.78;5048514;28;66042;-35
2024/02/20 06:45:24;;;;;;;5.50;2.88;;;;;;;33.46;68.02;100947.34;5057940;28;69688;-36
2024/02/20 06:47:58;;;;;;;3.78;3.38;;;;;;;33.49;68.05;100933.28;5044820;28;65937;-35
2024/02/20 06:50:31;;;;;;;3.40;3.10;;;;;;;33.54;67.92;100941.59;5046463;28;70469;-35
2024/02/20 06:53:02;;;;;;;7.78;2.85;;;;;;;33.53;67.90;100927.16;5048241;28;65255;-35
2024/02/20 06:55:33;;;;;;;4.23;2.87;;;;;;;33.56;67.77;100925.88;5047432;28;70594;-35
2024/02/20 06:58:04;;;;;;;3.13;2.83;;;;;;;33.61;67.79;100925.97;5040685;28;66468;-37
2024/02/20 07:00:38;;;;;;;3.00;2.70;;;;;;;33.63;67.74;100926.59;5042867;28;70245;-36
2024/02/20 07:03:10;;;;;;;3.00;2.70;;;;;;;33.67;67.64;100921.47;5041563;28;66325;-36
2024/02/20 07:05:41;;;;;;;2.55;2.35;;;;;;;33.68;67.44;100918.50;5041147;28;69984;-36
2024/02/20 07:08:12;;;;;;;3.13;2.90;;;;;;;33.67;67.51;100911.44;5042685;28;65254;-36
2024/02/20 07:10:43;;;;;;;3.25;2.67;;;;;;;33.74;67.72;100920.31;5044278;28;69888;-36
2024/02/20 07:13:18;;;;;;;4.32;2.47;;;;;;;33.74;67.67;100905.84;5042344;28;66382;-35
2024/02/20 07:15:49;;;;;;;2.67;2.40;;;;;;;33.79;67.39;100914.97;5046104;28;69204;-35
2024/02/20 07:18:22;;;;;;;3.63;3.20;;;;;;;33.73;67.63;100891.41;5042911;28;66148;-35
2024/02/20 07:20:53;;;;;;;3.03;2.50;;;;;;;33.87;67.20;100912.94;5039640;28;70186;-35
2024/02/20 07:23:24;;;;;;;3.30;2.70;;;;;;;33.88;67.28;100911.84;5044644;28;66156;-35
2024/02/20 07:25:55;;;;;;;3.10;2.90;;;;;;;33.90;67.33;100909.72;5046576;28;70073;-34
2024/02/20 07:28:26;;;;;;;3.00;2.80;;;;;;;33.90;67.39;100896.13;5049504;28;65740;-36
2024/02/20 07:30:56;;;;;;;5.15;3.05;;;;;;;33.94;67.42;100891.88;5052257;28;69551;-36
2024/02/20 07:33:28;;;;;;;2.60;2.40;;;;;;;33.99;67.39;100897.38;5057628;28;66304;-35
2024/02/20 07:36:06;;;;;;;2.88;2.67;;;;;;;33.99;66.88;100892.78;5059033;28;70001;-36
2024/02/20 07:38:39;;;;;;;4.63;2.33;;;;;;;34.02;67.14;100891.47;5048601;28;65685;-37
2024/02/20 07:41:10;;;;;;;2.65;2.42;;;;;;;34.05;67.09;100879.31;5040620;28;70803;-35
2024/02/20 07:43:41;;;;;;;2.97;2.65;;;;;;;34.07;67.25;100872.53;5039505;28;65134;-35
2024/02/20 07:46:15;;;;;;;2.88;2.25;;;;;;;34.10;67.07;100876.66;5042378;28;69737;-35
2024/02/20 07:48:46;;;;;;;2.33;2.20;;;;;;;34.13;66.99;100877.03;5046179;28;66572;-36
2024/02/20 07:51:17;;;;;;;;;;;;;;;34.07;66.62;100867.09;5052106;28;70811;-38
2024/02/20 07:53:50;;;;;;;2.40;2.17;;;;;;;34.17;66.76;100867.31;5041495;28;66436;-35
2024/02/20 07:56:26;;;;;;;4.85;2.55;;;;;;;34.13;66.44;100848.97;5052609;28;70047;-36
2024/02/20 07:58:58;;;;;;;2.70;2.50;;;;;;;34.21;66.90;100857.59;5046809;28;66252;-35
2024/02/20 08:01:29;;;;;;;2.50;2.05;;;;;;;34.24;66.59;100857.09;5063692;28;69240;-35
2024/02/20 08:04:01;;;;;;;2.85;2.63;;;;;;;34.26;66.72;100841.31;5041557;28;66339;-37
2024/02/20 08:06:33;;;;;;;2.60;2.30;;;;;;;34.28;66.53;100851.16;5043689;28;70385;-35
2024/02/20 08:09:06;;;;;;;5.70;2.30;;;;;;;34.31;66.33;100847.94;5057248;28;66653;-36
2024/02/20 08:11:37;;;;;;;2.53;2.33;;;;;;;34.35;66.28;100851.81;5044338;28;69550;-36
2024/02/20 08:14:09;;;;;;;2.67;2.47;;;;;;;34.38;66.18;100837.72;5047296;28;66739;-36
2024/02/20 08:16:40;;;;;;;2.40;2.15;;;;;;;34.38;66.23;100840.44;5046849;28;69096;-36
2024/02/20 08:19:10;;;;;;;2.67;2.47;;;;;;;34.43;66.46;100841.34;5061247;28;66275;-35
2024/02/20 08:21:42;;;;;;;2.53;2.20;;;;;;;34.47;66.32;100841.72;5046384;28;71135;-35
2024/02/20 08:24:14;;;;;;;3.05;2.33;;;;;;;34.50;66.33;100838.50;5064124;28;65173;-35
2024/02/20 08:26:45;;;;;;;2.25;2.15;;;;;;;34.53;66.13;100838.00;5058373;28;69282;-37
2024/02/20 08:29:15;;;;;;;2.17;2.08;;;;;;;34.57;66.46;100849.25;5056355;28;66355;-36
2024/02/20 08:31:47;;;;;;;2.78;2.33;;;;;;;34.59;66.44;100837.03;5054730;28;70814;-37
2024/02/20 08:34:19;;;;;;;3.45;2.00;;;;;;;34.64;66.27;100839.03;5039582;28;65558;-37
2024/02/20 08:36:50;;;;;;;2.70;2.00;;;;;;;34.68;66.17;100845.63;5041459;28;70359;-37
2024/02/20 08:39:22;;;;;;;5.72;2.30;;;;;;;34.68;65.79;100835.53;5041390;28;65724;-36
2024/02/20 08:41:54;;;;;;;4.38;2.40;;;;;;;34.74;65.83;100843.81;5039904;28;69329;-35
2024/02/20 08:44:26;;;;;;;2.38;1.95;;;;;;;34.79;66.04;100841.16;5042450;28;66418;-36
2024/02/20 08:46:56;;;;;;;4.80;2.13;;;;;;;34.84;66.35;100841.25;5042031;28;69744;-36
2024/02/20 08:49:27;;;;;;;2.90;2.03;;;;;;;34.85;65.63;100846.47;5042557;28;66807;-35
2024/02/20 08:52:01;;;;;;;2.17;1.80;;;;;;;34.91;65.60;100839.19;5041370;28;69468;-36
2024/02/20 08:54:32;;;;;;;1.87;1.77;;;;;;;34.94;65.45;100844.16;5057305;28;66332;-38
2024/02/20 08:57:02;;;;;;;3.67;2.10;;;;;;;34.99;66.07;100846.91;5042764;28;70469;-36
2024/02/20 08:59:33;;;;;;;3.20;2.17;;;;;;;35.01;65.64;100839.31;5044199;28;65943;-36
2024/02/20 09:02:06;;;;;;;2.08;1.88;;;;;;;35.10;65.63;100837.88;5053017;28;69880;-36
2024/02/20 09:04:37;;;;;;;2.17;1.95;;;;;;;35.14;65.73;100844.47;5047716;28;66656;-35
2024/02/20 09:07:11;;;;;;;2.13;1.92;;;;;;;35.19;65.67;100840.16;5046916;28;70413;-35
2024/02/20 09:09:44;;;;;;;2.25;2.05;;;;;;;35.24;65.40;100848.41;5060010;28;66167;-37
2024/02/20 09:12:19;;;;;;;1.92;1.73;;;;;;;35.28;65.54;100846.84;5049128;28;69981;-35
2024/02/20 09:14:50;;;;;;;6.03;1.88;;;;;;;35.28;64.73;100844.94;5055701;28;66531;-36
2024/02/20 09:17:20;;;;;;;3.30;2.15;;;;;;;35.27;64.90;100842.44;5048050;28;69592;-35
2024/02/20 09:19:51;;;;;;;7.18;1.92;;;;;;;35.25;65.45;100839.16;5057769;28;66521;-35
2024/02/20 09:22:24;;;;;;;5.90;2.38;;;;;;;35.31;65.14;100843.63;5043740;28;70121;-34
2024/02/20 09:24:56;;;;;;;3.63;2.00;;;;;;;35.31;65.08;100843.63;5056882;28;66389;-35
2024/02/20 09:27:28;;;;;;;10.73;2.53;;;;;;;35.28;64.69;100844.13;5060045;28;69949;-35
2024/02/20 09:29:59;;;;;;;4.95;2.30;;;;;;;35.37;64.96;100848.06;5048080;28;66358;-35
2024/02/20 09:32:30;;;;;;;4.70;2.40;;;;;;;35.43;65.38;100848.94;5045032;28;70202;-36
2024/02/20 09:35:02;;;;;;;4.25;2.17;;;;;;;35.38;64.72;100844.25;5053012;28;65365;-36
2024/02/20 09:37:33;;;;;;;1.83;1.60;;;;;;;35.47;65.38;100845.47;5059966;28;71151;-35
2024/02/20 09:40:07;;;;;;;3.97;1.90;;;;;;;35.50;64.83;100853.16;5061319;28;66249;-35
2024/02/20 09:42:43;;;;;;;3.58;2.45;;;;;;;35.46;64.06;100849.25;5061047;28;70412;-35
2024/02/20 09:45:19;;;;;;;3.25;1.80;;;;;;;35.43;64.17;100818.94;5054420;28;66592;-35
2024/02/20 09:47:51;;;;;;;3.88;2.10;;;;;;;35.60;64.79;100851.66;5049232;28;69314;-36
2024/02/20 09:50:26;;;;;;;2.92;1.88;;;;;;;35.45;63.95;100828.53;5049994;28;66603;-37
2024/02/20 09:52:57;;;;;;;3.75;1.80;;;;;;;35.68;64.69;100857.50;5054125;28;70043;-38
2024/02/20 09:55:28;;;;;;;7.55;2.90;;;;;;;35.65;63.99;100859.91;5044719;28;66618;-35
2024/02/20 09:57:59;;;;;;;5.15;2.67;;;;;;;35.67;64.31;100866.75;5058940;28;71143;-35
2024/02/20 10:00:30;;;;;;;4.47;2.50;;;;;;;35.67;64.40;100857.75;5055291;28;66649;-35
2024/02/20 10:03:03;;;;;;;6.33;2.87;;;;;;;35.72;64.47;100863.28;5061550;28;70347;-35
2024/02/20 10:05:43;;;;;;;4.10;2.92;;;;;;;35.71;64.12;100869.81;5053324;28;65555;-35
2024/02/20 10:08:13;;;;;;;3.33;2.50;;;;;;;35.74;64.11;100874.75;5057099;28;70229;-34
2024/02/20 10:10:46;;;;;;;4.40;3.08;;;;;;;35.75;64.05;100862.78;5042938;28;66602;-35
2024/02/20 10:13:18;;;;;;;5.78;2.58;;;;;;;35.75;64.54;100882.69;5053349;28;70768;-35
2024/02/20 10:15:49;;;;;;;3.33;2.53;;;;;;;35.70;64.12;100879.06;5057643;28;67141;-34
2024/02/20 10:18:20;;;;;;;2.75;2.45;;;;;;;35.80;64.20;100885.50;5055898;28;69685;-36
2024/02/20 10:21:02;;;;;;;5.75;2.88;;;;;;;35.84;63.98;100894.00;5043231;28;65645;-36
2024/02/20 10:23:32;;;;;;;3.83;2.63;;;;;;;35.86;63.76;100888.25;5052708;28;69999;-35
2024/02/20 10:26:03;;;;;;;3.58;2.25;;;;;;;35.85;64.19;100892.06;5049560;28;66694;-36
2024/02/20 10:28:33;;;;;;;3.00;2.00;;;;;;;35.83;63.65;100889.63;5049467;28;70396;-35
2024/02/20 10:31:04;;;;;;;4.22;2.75;;;;;;;35.81;63.65;100899.97;5051663;28;65211;-36
2024/02/20 10:33:34;;;;;;;4.75;2.63;;;;;;;35.75;64.42;100904.53;5058092;28;70277;-35
2024/02/20 10:36:05;;;;;;;;;;;;;;;35.73;64.24;100906.69;5052434;28;65268;-36
2024/02/20 10:38:36;;;;;;;3.88;2.53;;;;;;;35.64;63.83;100882.81;5071632;27;70247;-35
2024/02/20 10:41:14;;;;;;;5.85;2.75;;;;;;;35.70;63.81;100911.81;5055088;28;66595;-36
2024/02/20 10:43:49;;;;;;;3.88;2.70;;;;;;;35.64;63.54;100910.09;5054807;28;69153;-35
2024/02/20 10:46:20;;;;;;;4.15;2.85;;;;;;;35.70;64.48;100911.81;5054091;28;65814;-36
2024/02/20 10:48:53;;;;;;;3.42;2.92;;;;;;;35.45;63.97;100882.25;5047396;28;70050;-36
2024/02/20 10:51:27;;;;;;;5.00;2.90;;;;;;;35.53;63.77;100909.13;5059702;28;66630;-39
2024/02/20 10:53:58;;;;;;;2.85;2.58;;;;;;;35.58;63.85;100925.59;5059899;28;69877;-35
2024/02/20 10:56:30;;;;;;;5.68;2.85;;;;;;;35.55;63.87;100926.88;5044089;28;66074;-35
2024/02/20 10:59:00;;;;;;;5.07;2.90;;;;;;;35.56;64.57;100923.09;5043055;28;70085;-35
2024/02/20 11:01:31;;;;;;;6.67;3.07;;;;;;;35.46;64.59;100920.19;5043401;28;66750;-36
2024/02/20 11:04:02;;;;;;;4.63;2.97;;;;;;;35.41;64.84;100931.03;5060252;28;69488;-36
2024/02/20 11:06:42;;;;;;;5.20;3.53;;;;;;;35.45;65.02;100934.91;5039960;28;65943;-36
2024/02/20 11:09:13;;;;;;;3.78;3.40;;;;;;;35.38;64.76;100947.88;5051359;28;69576;-36
2024/02/20 11:11:44;;;;;;;4.22;3.80;;;;;;;35.39;64.94;100944.09;5048118;28;65912;-35
2024/02/20 11:14:25;;;;;;;6.57;4.10;;;;;;;35.31;64.58;100941.78;5052336;28;70234;-36
2024/02/20 11:16:56;;;;;;;4.63;4.20;;;;;;;35.34;64.45;100935.84;5057152;28;66467;-35
2024/02/20 11:19:35;;;;;;;9.43;4.45;;;;;;;35.32;64.87;100944.25;5056396;28;70098;-35
2024/02/20 11:22:07;;;;;;;5.60;3.50;;;;;;;35.25;65.00;100948.25;5057278;28;65781;-35
2024/02/20 11:24:38;;;;;;;4.35;3.90;;;;;;;35.19;64.78;100954.66;5056515;28;69529;-34
2024/02/20 11:27:10;;;;;;;4.78;4.35;;;;;;;35.19;64.82;100957.41;5057707;28;66183;-37
2024/02/20 11:29:41;;;;;;;6.00;4.35;;;;;;;35.17;65.26;100962.28;5055130;28;70437;-36
2024/02/20 11:32:11;;;;;;;5.70;5.20;;;;;;;35.10;65.05;100963.28;5054649;28;66409;-34
2024/02/20 11:34:43;;;;;;;6.82;6.13;;;;;;;35.06;65.17;100951.22;5047807;28;69984;-36
2024/02/20 11:37:14;;;;;;;8.77;6.82;;;;;;;35.01;65.37;100962.00;5049175;28;66340;-36
2024/02/20 11:39:47;;;;;;;8.38;7.68;;;;;;;34.99;65.97;100966.84;5044412;28;70475;-36
2024/02/20 11:42:19;;;;;;;10.10;9.30;;;;;;;34.92;65.94;100971.66;5047728;28;65741;-35